sensor_id;sensor_type;location;lat;lon;timestamp;P1;durP1;ratioP1;P2;durP2;ratioP2
6141;SDS011;71289;51.552;6.210;2024-03-22T00:01:45;38.07;;;16.20;;
6141;SDS011;71289;51.552;6.210;2024-03-22T00:04:11;37.13;;;17.90;;
6141;SDS011;71289;51.552;6.210;2024-03-22T00:06:38;55.37;;;18.10;;
6141;SDS011;71289;51.552;6.210;2024-03-22T00:09:05;39.87;;;16.33;;
6141;SDS011;71289;51.552;6.210;2024-03-22T00:11:31;46.43;;;19.07;;
6141;SDS011;71289;51.552;6.210;2024-03-22T00:13:57;46.97;;;17.97;;
6141;SDS011;71289;51.552;6.210;2024-03-22T00:16:23;45.07;;;19.20;;
6141;SDS011;71289;51.552;6.210;2024-03-22T00:18:48;43.10;;;16.53;;
6141;SDS011;71289;51.552;6.210;2024-03-22T00:21:14;42.30;;;18.30;;
6141;SDS011;71289;51.552;6.210;2024-03-22T00:23:39;43.37;;;20.87;;
6141;SDS011;71289;51.552;6.210;2024-03-22T00:26:05;48.50;;;21.23;;
6141;SDS011;71289;51.552;6.210;2024-03-22T00:28:32;41.53;;;16.50;;
6141;SDS011;71289;51.552;6.210;2024-03-22T00:30:58;41.83;;;18.10;;
6141;SDS011;71289;51.552;6.210;2024-03-22T00:33:24;45.03;;;18.60;;
6141;SDS011;71289;51.552;6.210;2024-03-22T00:35:49;53.53;;;18.47;;
6141;SDS011;71289;51.552;6.210;2024-03-22T00:38:15;51.33;;;19.57;;
6141;SDS011;71289;51.552;6.210;2024-03-22T00:40:40;55.23;;;17.97;;
6141;SDS011;71289;51.552;6.210;2024-03-22T00:43:06;41.83;;;19.77;;
6141;SDS011;71289;51.552;6.210;2024-03-22T00:45:32;41.10;;;18.33;;
6141;SDS011;71289;51.552;6.210;2024-03-22T00:47:57;50.00;;;21.00;;
6141;SDS011;71289;51.552;6.210;2024-03-22T00:50:23;50.67;;;19.60;;
6141;SDS011;71289;51.552;6.210;2024-03-22T00:52:50;48.30;;;21.43;;
6141;SDS011;71289;51.552;6.210;2024-03-22T00:55:17;54.43;;;18.17;;
6141;SDS011;71289;51.552;6.210;2024-03-22T00:57:43;47.17;;;22.13;;
6141;SDS011;71289;51.552;6.210;2024-03-22T01:00:09;46.43;;;20.47;;
6141;SDS011;71289;51.552;6.210;2024-03-22T01:02:35;45.17;;;18.93;;
6141;SDS011;71289;51.552;6.210;2024-03-22T01:05:00;43.57;;;22.33;;
6141;SDS011;71289;51.552;6.210;2024-03-22T01:07:26;42.60;;;20.93;;
6141;SDS011;71289;51.552;6.210;2024-03-22T01:09:51;52.87;;;21.83;;
6141;SDS011;71289;51.552;6.210;2024-03-22T01:12:17;49.80;;;20.47;;
6141;SDS011;71289;51.552;6.210;2024-03-22T01:14:43;41.27;;;19.23;;
6141;SDS011;71289;51.552;6.210;2024-03-22T01:17:08;46.83;;;18.97;;
6141;SDS011;71289;51.552;6.210;2024-03-22T01:19:34;49.10;;;20.50;;
6141;SDS011;71289;51.552;6.210;2024-03-22T01:21:59;53.33;;;20.47;;
6141;SDS011;71289;51.552;6.210;2024-03-22T01:24:25;56.03;;;22.13;;
6141;SDS011;71289;51.552;6.210;2024-03-22T01:26:50;50.73;;;20.40;;
6141;SDS011;71289;51.552;6.210;2024-03-22T01:29:16;41.37;;;20.90;;
6141;SDS011;71289;51.552;6.210;2024-03-22T01:31:42;46.77;;;20.40;;
6141;SDS011;71289;51.552;6.210;2024-03-22T01:34:07;52.40;;;20.70;;
6141;SDS011;71289;51.552;6.210;2024-03-22T01:36:33;48.10;;;19.77;;
6141;SDS011;71289;51.552;6.210;2024-03-22T01:38:58;48.17;;;22.13;;
6141;SDS011;71289;51.552;6.210;2024-03-22T01:41:24;43.87;;;19.90;;
6141;SDS011;71289;51.552;6.210;2024-03-22T01:43:50;48.87;;;20.33;;
6141;SDS011;71289;51.552;6.210;2024-03-22T01:46:15;49.63;;;19.30;;
6141;SDS011;71289;51.552;6.210;2024-03-22T01:48:41;54.00;;;23.93;;
6141;SDS011;71289;51.552;6.210;2024-03-22T01:51:07;57.67;;;24.30;;
6141;SDS011;71289;51.552;6.210;2024-03-22T01:53:34;49.07;;;19.90;;
6141;SDS011;71289;51.552;6.210;2024-03-22T01:56:02;39.93;;;19.57;;
6141;SDS011;71289;51.552;6.210;2024-03-22T01:58:28;46.87;;;20.83;;
6141;SDS011;71289;51.552;6.210;2024-03-22T02:00:54;45.57;;;19.70;;
6141;SDS011;71289;51.552;6.210;2024-03-22T02:03:19;54.70;;;21.23;;
6141;SDS011;71289;51.552;6.210;2024-03-22T02:05:45;52.80;;;21.63;;
6141;SDS011;71289;51.552;6.210;2024-03-22T02:08:11;43.50;;;19.20;;
6141;SDS011;71289;51.552;6.210;2024-03-22T02:10:36;44.30;;;20.63;;
6141;SDS011;71289;51.552;6.210;2024-03-22T02:13:02;53.53;;;22.00;;
6141;SDS011;71289;51.552;6.210;2024-03-22T02:15:27;48.87;;;20.87;;
6141;SDS011;71289;51.552;6.210;2024-03-22T02:17:53;54.00;;;25.17;;
6141;SDS011;71289;51.552;6.210;2024-03-22T02:20:19;65.10;;;23.57;;
6141;SDS011;71289;51.552;6.210;2024-03-22T02:22:44;58.43;;;24.37;;
6141;SDS011;71289;51.552;6.210;2024-03-22T02:25:10;39.17;;;20.70;;
6141;SDS011;71289;51.552;6.210;2024-03-22T02:27:35;53.90;;;20.67;;
6141;SDS011;71289;51.552;6.210;2024-03-22T02:30:03;50.67;;;22.80;;
6141;SDS011;71289;51.552;6.210;2024-03-22T02:32:29;47.27;;;19.20;;
6141;SDS011;71289;51.552;6.210;2024-03-22T02:34:55;48.03;;;21.37;;
6141;SDS011;71289;51.552;6.210;2024-03-22T02:37:20;42.27;;;19.30;;
6141;SDS011;71289;51.552;6.210;2024-03-22T02:39:46;47.40;;;18.30;;
6141;SDS011;71289;51.552;6.210;2024-03-22T02:42:11;52.57;;;22.47;;
6141;SDS011;71289;51.552;6.210;2024-03-22T02:44:37;50.40;;;23.20;;
6141;SDS011;71289;51.552;6.210;2024-03-22T02:47:07;41.90;;;19.00;;
6141;SDS011;71289;51.552;6.210;2024-03-22T02:49:37;36.43;;;18.83;;
6141;SDS011;71289;51.552;6.210;2024-03-22T02:52:03;40.40;;;19.47;;
6141;SDS011;71289;51.552;6.210;2024-03-22T02:54:29;47.97;;;18.97;;
6141;SDS011;71289;51.552;6.210;2024-03-22T02:56:55;37.13;;;18.47;;
6141;SDS011;71289;51.552;6.210;2024-03-22T02:59:20;41.23;;;18.50;;
6141;SDS011;71289;51.552;6.210;2024-03-22T03:01:46;36.50;;;19.33;;
6141;SDS011;71289;51.552;6.210;2024-03-22T03:04:12;36.43;;;17.50;;
6141;SDS011;71289;51.552;6.210;2024-03-22T03:06:37;34.87;;;17.03;;
6141;SDS011;71289;51.552;6.210;2024-03-22T03:09:03;40.17;;;20.50;;
6141;SDS011;71289;51.552;6.210;2024-03-22T03:11:32;39.80;;;18.33;;
6141;SDS011;71289;51.552;6.210;2024-03-22T03:13:58;38.57;;;18.77;;
6141;SDS011;71289;51.552;6.210;2024-03-22T03:16:23;34.73;;;18.23;;
6141;SDS011;71289;51.552;6.210;2024-03-22T03:18:49;44.10;;;18.83;;
6141;SDS011;71289;51.552;6.210;2024-03-22T03:21:14;46.23;;;19.10;;
6141;SDS011;71289;51.552;6.210;2024-03-22T03:23:40;47.47;;;18.70;;
6141;SDS011;71289;51.552;6.210;2024-03-22T03:26:05;45.47;;;19.03;;
6141;SDS011;71289;51.552;6.210;2024-03-22T03:28:31;38.27;;;18.50;;
6141;SDS011;71289;51.552;6.210;2024-03-22T03:30:57;45.00;;;19.80;;
6141;SDS011;71289;51.552;6.210;2024-03-22T03:33:22;40.10;;;16.67;;
6141;SDS011;71289;51.552;6.210;2024-03-22T03:35:48;37.47;;;17.90;;
6141;SDS011;71289;51.552;6.210;2024-03-22T03:38:13;37.83;;;19.10;;
6141;SDS011;71289;51.552;6.210;2024-03-22T03:40:39;43.70;;;19.50;;
6141;SDS011;71289;51.552;6.210;2024-03-22T03:43:05;37.57;;;20.97;;
6141;SDS011;71289;51.552;6.210;2024-03-22T03:45:30;39.47;;;18.97;;
6141;SDS011;71289;51.552;6.210;2024-03-22T03:47:56;49.87;;;20.93;;
6141;SDS011;71289;51.552;6.210;2024-03-22T03:50:21;37.40;;;18.33;;
6141;SDS011;71289;51.552;6.210;2024-03-22T03:52:47;40.63;;;19.97;;
6141;SDS011;71289;51.552;6.210;2024-03-22T03:55:13;45.30;;;19.53;;
6141;SDS011;71289;51.552;6.210;2024-03-22T03:57:39;43.33;;;20.77;;
6141;SDS011;71289;51.552;6.210;2024-03-22T04:00:04;39.60;;;18.93;;
6141;SDS011;71289;51.552;6.210;2024-03-22T04:02:30;35.97;;;19.60;;
6141;SDS011;71289;51.552;6.210;2024-03-22T04:04:56;37.53;;;18.77;;
6141;SDS011;71289;51.552;6.210;2024-03-22T04:07:22;38.37;;;19.50;;
6141;SDS011;71289;51.552;6.210;2024-03-22T04:09:47;42.37;;;18.80;;
6141;SDS011;71289;51.552;6.210;2024-03-22T04:12:13;42.67;;;18.27;;
6141;SDS011;71289;51.552;6.210;2024-03-22T04:14:38;42.17;;;18.30;;
6141;SDS011;71289;51.552;6.210;2024-03-22T04:17:04;40.10;;;18.77;;
6141;SDS011;71289;51.552;6.210;2024-03-22T04:19:30;40.67;;;18.00;;
6141;SDS011;71289;51.552;6.210;2024-03-22T04:21:55;57.23;;;17.80;;
6141;SDS011;71289;51.552;6.210;2024-03-22T04:24:21;34.63;;;17.90;;
6141;SDS011;71289;51.552;6.210;2024-03-22T04:26:46;41.07;;;19.17;;
6141;SDS011;71289;51.552;6.210;2024-03-22T04:29:12;40.40;;;17.93;;
6141;SDS011;71289;51.552;6.210;2024-03-22T04:31:37;47.67;;;20.83;;
6141;SDS011;71289;51.552;6.210;2024-03-22T04:34:03;34.27;;;17.70;;
6141;SDS011;71289;51.552;6.210;2024-03-22T04:36:30;39.60;;;19.00;;
6141;SDS011;71289;51.552;6.210;2024-03-22T04:38:56;42.23;;;20.50;;
6141;SDS011;71289;51.552;6.210;2024-03-22T04:41:22;38.37;;;19.20;;
6141;SDS011;71289;51.552;6.210;2024-03-22T04:43:47;45.77;;;21.50;;
6141;SDS011;71289;51.552;6.210;2024-03-22T04:46:13;35.13;;;18.93;;
6141;SDS011;71289;51.552;6.210;2024-03-22T04:48:38;40.57;;;17.63;;
6141;SDS011;71289;51.552;6.210;2024-03-22T04:51:04;41.03;;;19.70;;
6141;SDS011;71289;51.552;6.210;2024-03-22T04:53:30;37.33;;;20.00;;
6141;SDS011;71289;51.552;6.210;2024-03-22T04:55:55;40.57;;;19.47;;
6141;SDS011;71289;51.552;6.210;2024-03-22T04:58:21;37.23;;;19.50;;
6141;SDS011;71289;51.552;6.210;2024-03-22T05:00:47;37.87;;;18.60;;
6141;SDS011;71289;51.552;6.210;2024-03-22T05:03:14;33.83;;;17.93;;
6141;SDS011;71289;51.552;6.210;2024-03-22T05:05:41;34.40;;;18.43;;
6141;SDS011;71289;51.552;6.210;2024-03-22T05:08:08;28.90;;;16.30;;
6141;SDS011;71289;51.552;6.210;2024-03-22T05:10:34;41.50;;;18.67;;
6141;SDS011;71289;51.552;6.210;2024-03-22T05:13:00;37.80;;;19.77;;
6141;SDS011;71289;51.552;6.210;2024-03-22T05:15:25;35.20;;;16.70;;
6141;SDS011;71289;51.552;6.210;2024-03-22T05:17:51;37.70;;;18.10;;
6141;SDS011;71289;51.552;6.210;2024-03-22T05:20:18;37.67;;;19.60;;
6141;SDS011;71289;51.552;6.210;2024-03-22T05:22:44;35.90;;;18.60;;
6141;SDS011;71289;51.552;6.210;2024-03-22T05:25:09;34.13;;;17.40;;
6141;SDS011;71289;51.552;6.210;2024-03-22T05:27:35;37.60;;;18.77;;
6141;SDS011;71289;51.552;6.210;2024-03-22T05:30:01;32.03;;;17.23;;
6141;SDS011;71289;51.552;6.210;2024-03-22T05:32:29;41.53;;;19.40;;
6141;SDS011;71289;51.552;6.210;2024-03-22T05:34:54;37.83;;;18.80;;
6141;SDS011;71289;51.552;6.210;2024-03-22T05:37:20;50.20;;;17.70;;
6141;SDS011;71289;51.552;6.210;2024-03-22T05:39:46;49.03;;;19.10;;
6141;SDS011;71289;51.552;6.210;2024-03-22T05:42:11;43.17;;;19.00;;
6141;SDS011;71289;51.552;6.210;2024-03-22T05:44:37;43.00;;;22.30;;
6141;SDS011;71289;51.552;6.210;2024-03-22T05:47:02;29.40;;;18.10;;
6141;SDS011;71289;51.552;6.210;2024-03-22T05:49:28;35.87;;;17.37;;
6141;SDS011;71289;51.552;6.210;2024-03-22T05:51:54;47.30;;;19.57;;
6141;SDS011;71289;51.552;6.210;2024-03-22T05:54:20;36.67;;;19.43;;
6141;SDS011;71289;51.552;6.210;2024-03-22T05:56:45;36.93;;;18.10;;
6141;SDS011;71289;51.552;6.210;2024-03-22T05:59:11;30.93;;;17.77;;
6141;SDS011;71289;51.552;6.210;2024-03-22T06:01:37;32.23;;;16.80;;
6141;SDS011;71289;51.552;6.210;2024-03-22T06:04:06;41.30;;;18.50;;
6141;SDS011;71289;51.552;6.210;2024-03-22T06:06:34;46.37;;;17.43;;
6141;SDS011;71289;51.552;6.210;2024-03-22T06:09:01;29.37;;;16.77;;
6141;SDS011;71289;51.552;6.210;2024-03-22T06:11:34;33.40;;;17.40;;
6141;SDS011;71289;51.552;6.210;2024-03-22T06:13:59;35.50;;;18.70;;
6141;SDS011;71289;51.552;6.210;2024-03-22T06:16:25;32.23;;;17.13;;
6141;SDS011;71289;51.552;6.210;2024-03-22T06:18:51;36.60;;;17.53;;
6141;SDS011;71289;51.552;6.210;2024-03-22T06:21:16;31.80;;;17.80;;
6141;SDS011;71289;51.552;6.210;2024-03-22T06:23:48;33.50;;;18.30;;
6141;SDS011;71289;51.552;6.210;2024-03-22T06:26:14;33.33;;;16.93;;
6141;SDS011;71289;51.552;6.210;2024-03-22T06:28:40;41.57;;;17.83;;
6141;SDS011;71289;51.552;6.210;2024-03-22T06:31:05;33.40;;;15.70;;
6141;SDS011;71289;51.552;6.210;2024-03-22T06:33:31;35.80;;;18.10;;
6141;SDS011;71289;51.552;6.210;2024-03-22T06:35:57;32.07;;;16.00;;
6141;SDS011;71289;51.552;6.210;2024-03-22T06:38:22;34.33;;;17.27;;
6141;SDS011;71289;51.552;6.210;2024-03-22T06:40:48;33.50;;;14.97;;
6141;SDS011;71289;51.552;6.210;2024-03-22T06:43:13;35.10;;;17.40;;
6141;SDS011;71289;51.552;6.210;2024-03-22T06:45:39;33.57;;;17.20;;
6141;SDS011;71289;51.552;6.210;2024-03-22T06:48:04;39.43;;;17.63;;
6141;SDS011;71289;51.552;6.210;2024-03-22T06:50:30;30.67;;;14.60;;
6141;SDS011;71289;51.552;6.210;2024-03-22T06:52:56;38.50;;;15.03;;
6141;SDS011;71289;51.552;6.210;2024-03-22T06:55:21;35.70;;;15.17;;
6141;SDS011;71289;51.552;6.210;2024-03-22T06:57:47;32.73;;;15.90;;
6141;SDS011;71289;51.552;6.210;2024-03-22T07:00:14;37.50;;;16.40;;
6141;SDS011;71289;51.552;6.210;2024-03-22T07:02:40;29.97;;;16.37;;
6141;SDS011;71289;51.552;6.210;2024-03-22T07:05:08;38.63;;;15.63;;
6141;SDS011;71289;51.552;6.210;2024-03-22T07:07:34;25.93;;;15.53;;
6141;SDS011;71289;51.552;6.210;2024-03-22T07:10:01;29.93;;;16.03;;
6141;SDS011;71289;51.552;6.210;2024-03-22T07:12:27;25.17;;;14.47;;
6141;SDS011;71289;51.552;6.210;2024-03-22T07:14:53;32.70;;;16.00;;
6141;SDS011;71289;51.552;6.210;2024-03-22T07:17:20;24.20;;;12.00;;
6141;SDS011;71289;51.552;6.210;2024-03-22T07:19:49;31.70;;;13.70;;
6141;SDS011;71289;51.552;6.210;2024-03-22T07:22:16;25.20;;;12.97;;
6141;SDS011;71289;51.552;6.210;2024-03-22T07:24:42;28.67;;;12.33;;
6141;SDS011;71289;51.552;6.210;2024-03-22T07:27:07;21.37;;;12.10;;
6141;SDS011;71289;51.552;6.210;2024-03-22T07:29:33;31.50;;;12.63;;
6141;SDS011;71289;51.552;6.210;2024-03-22T07:31:58;22.67;;;13.00;;
6141;SDS011;71289;51.552;6.210;2024-03-22T07:34:24;21.40;;;12.07;;
6141;SDS011;71289;51.552;6.210;2024-03-22T07:36:49;18.97;;;11.43;;
6141;SDS011;71289;51.552;6.210;2024-03-22T07:39:15;24.67;;;12.17;;
6141;SDS011;71289;51.552;6.210;2024-03-22T07:41:41;27.73;;;13.07;;
6141;SDS011;71289;51.552;6.210;2024-03-22T07:44:06;25.50;;;11.63;;
6141;SDS011;71289;51.552;6.210;2024-03-22T07:46:32;24.57;;;11.37;;
6141;SDS011;71289;51.552;6.210;2024-03-22T07:48:58;24.70;;;12.57;;
6141;SDS011;71289;51.552;6.210;2024-03-22T07:51:24;20.80;;;11.60;;
6141;SDS011;71289;51.552;6.210;2024-03-22T07:53:50;22.10;;;10.47;;
6141;SDS011;71289;51.552;6.210;2024-03-22T07:56:17;19.30;;;11.10;;
6141;SDS011;71289;51.552;6.210;2024-03-22T07:58:42;19.87;;;10.63;;
6141;SDS011;71289;51.552;6.210;2024-03-22T08:01:08;22.93;;;12.10;;
6141;SDS011;71289;51.552;6.210;2024-03-22T08:03:34;25.07;;;12.90;;
6141;SDS011;71289;51.552;6.210;2024-03-22T08:05:59;22.30;;;11.87;;
6141;SDS011;71289;51.552;6.210;2024-03-22T08:08:25;21.40;;;10.73;;
6141;SDS011;71289;51.552;6.210;2024-03-22T08:10:50;19.53;;;9.70;;
6141;SDS011;71289;51.552;6.210;2024-03-22T08:13:16;21.60;;;11.10;;
6141;SDS011;71289;51.552;6.210;2024-03-22T08:15:42;18.00;;;10.63;;
6141;SDS011;71289;51.552;6.210;2024-03-22T08:18:10;22.27;;;10.33;;
6141;SDS011;71289;51.552;6.210;2024-03-22T08:20:36;20.80;;;12.73;;
6141;SDS011;71289;51.552;6.210;2024-03-22T08:23:03;27.97;;;10.83;;
6141;SDS011;71289;51.552;6.210;2024-03-22T08:25:29;20.00;;;10.57;;
6141;SDS011;71289;51.552;6.210;2024-03-22T08:27:55;20.30;;;11.30;;
6141;SDS011;71289;51.552;6.210;2024-03-22T08:30:21;19.37;;;10.30;;
6141;SDS011;71289;51.552;6.210;2024-03-22T08:32:48;22.10;;;10.80;;
6141;SDS011;71289;51.552;6.210;2024-03-22T08:35:13;18.70;;;10.40;;
6141;SDS011;71289;51.552;6.210;2024-03-22T08:37:39;24.17;;;11.37;;
6141;SDS011;71289;51.552;6.210;2024-03-22T08:40:05;16.70;;;9.40;;
6141;SDS011;71289;51.552;6.210;2024-03-22T08:42:31;21.67;;;10.73;;
6141;SDS011;71289;51.552;6.210;2024-03-22T08:44:57;19.20;;;10.00;;
6141;SDS011;71289;51.552;6.210;2024-03-22T08:47:22;21.80;;;10.70;;
6141;SDS011;71289;51.552;6.210;2024-03-22T08:49:48;20.40;;;9.67;;
6141;SDS011;71289;51.552;6.210;2024-03-22T08:52:14;19.17;;;10.60;;
6141;SDS011;71289;51.552;6.210;2024-03-22T08:54:40;20.13;;;11.67;;
6141;SDS011;71289;51.552;6.210;2024-03-22T08:57:05;17.80;;;10.37;;
6141;SDS011;71289;51.552;6.210;2024-03-22T08:59:31;20.77;;;10.77;;
6141;SDS011;71289;51.552;6.210;2024-03-22T09:01:57;18.63;;;10.17;;
6141;SDS011;71289;51.552;6.210;2024-03-22T09:04:24;17.30;;;9.77;;
6141;SDS011;71289;51.552;6.210;2024-03-22T09:06:50;17.33;;;9.93;;
6141;SDS011;71289;51.552;6.210;2024-03-22T09:09:16;20.17;;;9.93;;
6141;SDS011;71289;51.552;6.210;2024-03-22T09:11:42;18.03;;;10.17;;
6141;SDS011;71289;51.552;6.210;2024-03-22T09:14:07;14.80;;;9.97;;
6141;SDS011;71289;51.552;6.210;2024-03-22T09:16:33;24.40;;;10.13;;
6141;SDS011;71289;51.552;6.210;2024-03-22T09:18:59;17.27;;;11.20;;
6141;SDS011;71289;51.552;6.210;2024-03-22T09:21:24;15.77;;;10.30;;
6141;SDS011;71289;51.552;6.210;2024-03-22T09:23:50;17.10;;;10.37;;
6141;SDS011;71289;51.552;6.210;2024-03-22T09:26:16;18.07;;;10.83;;
6141;SDS011;71289;51.552;6.210;2024-03-22T09:28:41;23.33;;;11.30;;
6141;SDS011;71289;51.552;6.210;2024-03-22T09:31:07;19.30;;;10.23;;
6141;SDS011;71289;51.552;6.210;2024-03-22T09:33:33;15.47;;;9.97;;
6141;SDS011;71289;51.552;6.210;2024-03-22T09:35:59;21.40;;;9.97;;
6141;SDS011;71289;51.552;6.210;2024-03-22T09:38:25;18.90;;;9.57;;
6141;SDS011;71289;51.552;6.210;2024-03-22T09:40:50;21.13;;;9.63;;
6141;SDS011;71289;51.552;6.210;2024-03-22T09:43:20;20.13;;;9.60;;
6141;SDS011;71289;51.552;6.210;2024-03-22T09:45:48;14.50;;;9.03;;
6141;SDS011;71289;51.552;6.210;2024-03-22T09:48:18;17.70;;;8.60;;
6141;SDS011;71289;51.552;6.210;2024-03-22T09:50:45;15.87;;;9.60;;
6141;SDS011;71289;51.552;6.210;2024-03-22T09:53:13;13.83;;;9.40;;
6141;SDS011;71289;51.552;6.210;2024-03-22T09:55:42;18.37;;;9.40;;
6141;SDS011;71289;51.552;6.210;2024-03-22T09:58:13;17.50;;;10.10;;
6141;SDS011;71289;51.552;6.210;2024-03-22T10:00:41;18.10;;;11.37;;
6141;SDS011;71289;51.552;6.210;2024-03-22T10:03:07;18.00;;;9.40;;
6141;SDS011;71289;51.552;6.210;2024-03-22T10:05:34;12.70;;;8.03;;
6141;SDS011;71289;51.552;6.210;2024-03-22T10:08:00;16.70;;;10.33;;
6141;SDS011;71289;51.552;6.210;2024-03-22T10:10:26;14.10;;;9.00;;
6141;SDS011;71289;51.552;6.210;2024-03-22T10:12:52;13.90;;;9.93;;
6141;SDS011;71289;51.552;6.210;2024-03-22T10:15:20;17.07;;;9.03;;
6141;SDS011;71289;51.552;6.210;2024-03-22T10:17:48;11.83;;;9.17;;
6141;SDS011;71289;51.552;6.210;2024-03-22T10:20:13;18.70;;;9.10;;
6141;SDS011;71289;51.552;6.210;2024-03-22T10:22:42;21.30;;;10.63;;
6141;SDS011;71289;51.552;6.210;2024-03-22T10:25:12;21.40;;;10.20;;
6141;SDS011;71289;51.552;6.210;2024-03-22T10:27:38;17.80;;;9.10;;
6141;SDS011;71289;51.552;6.210;2024-03-22T10:30:06;16.13;;;9.27;;
6141;SDS011;71289;51.552;6.210;2024-03-22T10:32:34;14.17;;;8.40;;
6141;SDS011;71289;51.552;6.210;2024-03-22T10:35:01;14.47;;;8.37;;
6141;SDS011;71289;51.552;6.210;2024-03-22T10:37:30;15.97;;;7.70;;
6141;SDS011;71289;51.552;6.210;2024-03-22T10:40:03;12.60;;;8.00;;
6141;SDS011;71289;51.552;6.210;2024-03-22T10:42:32;19.43;;;10.30;;
6141;SDS011;71289;51.552;6.210;2024-03-22T10:45:09;12.03;;;8.03;;
6141;SDS011;71289;51.552;6.210;2024-03-22T10:47:35;12.30;;;8.87;;
6141;SDS011;71289;51.552;6.210;2024-03-22T10:50:08;10.73;;;7.90;;
6141;SDS011;71289;51.552;6.210;2024-03-22T10:55:04;12.00;;;7.93;;
6141;SDS011;71289;51.552;6.210;2024-03-22T10:57:32;13.70;;;8.23;;
6141;SDS011;71289;51.552;6.210;2024-03-22T11:00:02;15.00;;;8.50;;
6141;SDS011;71289;51.552;6.210;2024-03-22T11:02:34;15.23;;;9.30;;
6141;SDS011;71289;51.552;6.210;2024-03-22T11:05:01;12.20;;;8.77;;
6141;SDS011;71289;51.552;6.210;2024-03-22T11:07:29;11.67;;;8.13;;
6141;SDS011;71289;51.552;6.210;2024-03-22T11:10:00;15.67;;;9.53;;
6141;SDS011;71289;51.552;6.210;2024-03-22T11:12:31;12.60;;;9.40;;
6141;SDS011;71289;51.552;6.210;2024-03-22T11:14:58;14.60;;;8.63;;
6141;SDS011;71289;51.552;6.210;2024-03-22T11:17:24;16.30;;;8.57;;
6141;SDS011;71289;51.552;6.210;2024-03-22T11:19:50;18.90;;;8.97;;
6141;SDS011;71289;51.552;6.210;2024-03-22T11:22:17;21.40;;;8.50;;
6141;SDS011;71289;51.552;6.210;2024-03-22T11:24:43;15.03;;;8.20;;
6141;SDS011;71289;51.552;6.210;2024-03-22T11:27:09;14.27;;;9.47;;
6141;SDS011;71289;51.552;6.210;2024-03-22T11:29:36;18.03;;;8.53;;
6141;SDS011;71289;51.552;6.210;2024-03-22T11:32:04;21.70;;;9.93;;
6141;SDS011;71289;51.552;6.210;2024-03-22T11:34:30;16.13;;;9.13;;
6141;SDS011;71289;51.552;6.210;2024-03-22T11:36:55;13.00;;;9.30;;
6141;SDS011;71289;51.552;6.210;2024-03-22T11:39:21;17.30;;;9.47;;
6141;SDS011;71289;51.552;6.210;2024-03-22T11:41:47;20.87;;;9.17;;
6141;SDS011;71289;51.552;6.210;2024-03-22T11:44:14;17.10;;;10.47;;
6141;SDS011;71289;51.552;6.210;2024-03-22T11:46:41;15.37;;;9.37;;
6141;SDS011;71289;51.552;6.210;2024-03-22T11:49:07;14.47;;;9.10;;
6141;SDS011;71289;51.552;6.210;2024-03-22T11:51:32;14.00;;;9.47;;
6141;SDS011;71289;51.552;6.210;2024-03-22T11:53:58;16.50;;;10.80;;
6141;SDS011;71289;51.552;6.210;2024-03-22T11:56:24;17.23;;;10.37;;
6141;SDS011;71289;51.552;6.210;2024-03-22T11:58:57;21.43;;;10.63;;
6141;SDS011;71289;51.552;6.210;2024-03-22T12:01:23;15.27;;;9.97;;
6141;SDS011;71289;51.552;6.210;2024-03-22T12:03:49;13.80;;;10.03;;
6141;SDS011;71289;51.552;6.210;2024-03-22T12:06:15;16.30;;;11.50;;
6141;SDS011;71289;51.552;6.210;2024-03-22T12:08:41;17.73;;;11.17;;
6141;SDS011;71289;51.552;6.210;2024-03-22T12:11:07;18.90;;;10.80;;
6141;SDS011;71289;51.552;6.210;2024-03-22T12:13:33;14.20;;;9.83;;
6141;SDS011;71289;51.552;6.210;2024-03-22T12:15:59;15.80;;;11.30;;
6141;SDS011;71289;51.552;6.210;2024-03-22T12:18:26;16.40;;;10.90;;
6141;SDS011;71289;51.552;6.210;2024-03-22T12:20:52;16.10;;;10.93;;
6141;SDS011;71289;51.552;6.210;2024-03-22T12:23:18;20.17;;;11.07;;
6141;SDS011;71289;51.552;6.210;2024-03-22T12:25:43;15.77;;;10.37;;
6141;SDS011;71289;51.552;6.210;2024-03-22T12:28:09;19.07;;;11.50;;
6141;SDS011;71289;51.552;6.210;2024-03-22T12:30:34;19.20;;;12.10;;
6141;SDS011;71289;51.552;6.210;2024-03-22T12:33:00;21.77;;;12.33;;
6141;SDS011;71289;51.552;6.210;2024-03-22T12:35:26;18.67;;;11.00;;
6141;SDS011;71289;51.552;6.210;2024-03-22T12:37:52;15.57;;;10.33;;
6141;SDS011;71289;51.552;6.210;2024-03-22T12:40:18;18.50;;;11.60;;
6141;SDS011;71289;51.552;6.210;2024-03-22T12:42:44;19.50;;;11.57;;
6141;SDS011;71289;51.552;6.210;2024-03-22T12:45:09;14.67;;;10.07;;
6141;SDS011;71289;51.552;6.210;2024-03-22T12:47:36;19.07;;;12.00;;
6141;SDS011;71289;51.552;6.210;2024-03-22T12:50:03;17.90;;;12.60;;
6141;SDS011;71289;51.552;6.210;2024-03-22T12:52:29;17.67;;;12.00;;
6141;SDS011;71289;51.552;6.210;2024-03-22T12:54:55;17.27;;;12.00;;
6141;SDS011;71289;51.552;6.210;2024-03-22T12:57:20;17.80;;;11.70;;
6141;SDS011;71289;51.552;6.210;2024-03-22T12:59:46;18.93;;;12.47;;
6141;SDS011;71289;51.552;6.210;2024-03-22T13:02:11;18.97;;;12.00;;
6141;SDS011;71289;51.552;6.210;2024-03-22T13:04:37;18.43;;;12.33;;
6141;SDS011;71289;51.552;6.210;2024-03-22T13:07:03;27.03;;;13.03;;
6141;SDS011;71289;51.552;6.210;2024-03-22T13:09:28;16.40;;;12.00;;
6141;SDS011;71289;51.552;6.210;2024-03-22T13:11:54;19.80;;;13.40;;
6141;SDS011;71289;51.552;6.210;2024-03-22T13:14:19;23.47;;;13.40;;
6141;SDS011;71289;51.552;6.210;2024-03-22T13:16:45;20.57;;;13.30;;
6141;SDS011;71289;51.552;6.210;2024-03-22T13:19:11;26.27;;;14.50;;
6141;SDS011;71289;51.552;6.210;2024-03-22T13:21:38;28.33;;;14.10;;
6141;SDS011;71289;51.552;6.210;2024-03-22T13:24:04;20.87;;;12.80;;
6141;SDS011;71289;51.552;6.210;2024-03-22T13:26:30;21.00;;;13.20;;
6141;SDS011;71289;51.552;6.210;2024-03-22T13:28:56;28.23;;;12.80;;
6141;SDS011;71289;51.552;6.210;2024-03-22T13:31:21;18.50;;;13.73;;
6141;SDS011;71289;51.552;6.210;2024-03-22T13:33:47;19.40;;;13.17;;
6141;SDS011;71289;51.552;6.210;2024-03-22T13:36:13;17.33;;;11.77;;
6141;SDS011;71289;51.552;6.210;2024-03-22T13:38:38;19.93;;;12.33;;
6141;SDS011;71289;51.552;6.210;2024-03-22T13:41:04;18.90;;;12.83;;
6141;SDS011;71289;51.552;6.210;2024-03-22T13:43:31;22.70;;;14.40;;
6141;SDS011;71289;51.552;6.210;2024-03-22T13:45:57;25.87;;;15.37;;
6141;SDS011;71289;51.552;6.210;2024-03-22T13:48:23;18.57;;;10.73;;
6141;SDS011;71289;51.552;6.210;2024-03-22T13:50:53;17.37;;;10.70;;
6141;SDS011;71289;51.552;6.210;2024-03-22T13:53:19;16.83;;;10.33;;
6141;SDS011;71289;51.552;6.210;2024-03-22T13:55:48;18.90;;;11.90;;
6141;SDS011;71289;51.552;6.210;2024-03-22T13:58:14;16.27;;;11.77;;
6141;SDS011;71289;51.552;6.210;2024-03-22T14:00:40;20.83;;;11.40;;
6141;SDS011;71289;51.552;6.210;2024-03-22T14:03:06;16.90;;;10.77;;
6141;SDS011;71289;51.552;6.210;2024-03-22T14:05:31;21.03;;;11.10;;
6141;SDS011;71289;51.552;6.210;2024-03-22T14:07:58;16.33;;;10.30;;
6141;SDS011;71289;51.552;6.210;2024-03-22T14:10:24;17.50;;;10.40;;
6141;SDS011;71289;51.552;6.210;2024-03-22T14:12:51;15.37;;;10.20;;
6141;SDS011;71289;51.552;6.210;2024-03-22T14:15:17;17.10;;;10.77;;
6141;SDS011;71289;51.552;6.210;2024-03-22T14:17:43;16.70;;;8.73;;
6141;SDS011;71289;51.552;6.210;2024-03-22T14:20:09;20.20;;;11.07;;
6141;SDS011;71289;51.552;6.210;2024-03-22T14:22:40;22.47;;;9.43;;
6141;SDS011;71289;51.552;6.210;2024-03-22T14:25:07;17.87;;;8.97;;
6141;SDS011;71289;51.552;6.210;2024-03-22T14:27:33;13.60;;;9.00;;
6141;SDS011;71289;51.552;6.210;2024-03-22T14:30:04;13.33;;;7.80;;
6141;SDS011;71289;51.552;6.210;2024-03-22T14:32:33;17.40;;;10.70;;